createdAt,value
2023-05-01T00:00:28.741Z,7.78
2023-05-01T00:02:10.053Z,7.49
2023-05-01T00:03:51.539Z,7.52
2023-05-01T00:05:32.979Z,7.09
2023-05-01T00:07:14.269Z,7.03
2023-05-01T00:08:55.580Z,6.73
2023-05-01T00:10:36.890Z,6.79
2023-05-01T00:12:18.201Z,6.81
2023-05-01T00:13:59.597Z,6.67
2023-05-01T00:15:40.877Z,6.34
2023-05-01T00:17:22.189Z,6.26
2023-05-01T00:19:03.493Z,6.24
2023-05-01T00:20:44.818Z,6.30
2023-05-01T00:22:26.130Z,6.11
2023-05-01T00:24:07.444Z,5.85
2023-05-01T00:25:48.737Z,5.90
2023-05-01T00:27:30.026Z,5.92
2023-05-01T00:29:11.360Z,6.12
2023-05-01T00:30:52.691Z,6.16
2023-05-01T00:32:33.979Z,6.18
2023-05-01T00:34:15.304Z,6.12
2023-05-01T00:35:56.635Z,6.14
2023-05-01T00:37:37.963Z,6.28
2023-05-01T00:39:19.240Z,6.47
2023-05-01T00:41:00.541Z,6.54
2023-05-01T00:42:41.876Z,6.65
2023-05-01T00:44:23.349Z,6.78
2023-05-01T00:46:04.687Z,6.89
2023-05-01T00:47:46.102Z,6.95
2023-05-01T00:49:27.421Z,7.03
2023-05-01T00:51:08.741Z,7.05
2023-05-01T00:52:50.066Z,7.02
2023-05-01T00:54:31.356Z,6.94
2023-05-01T00:56:12.656Z,6.87
2023-05-01T00:57:53.974Z,6.87
2023-05-01T00:59:35.316Z,6.88
2023-05-01T01:01:16.717Z,6.94
2023-05-01T01:02:58.108Z,6.84
2023-05-01T01:04:39.516Z,6.91
2023-05-01T01:06:20.934Z,7.01
2023-05-01T01:08:02.223Z,7.07
2023-05-01T01:09:43.541Z,7.01
2023-05-01T01:11:25.649Z,6.99
2023-05-01T01:13:06.958Z,6.91
2023-05-01T01:14:48.287Z,6.78
2023-05-01T01:16:29.599Z,6.75
2023-05-01T01:18:10.930Z,6.81
2023-05-01T01:19:52.329Z,6.87
2023-05-01T01:21:33.603Z,6.84
2023-05-01T01:23:15.011Z,6.90
2023-05-01T01:24:56.390Z,6.89
2023-05-01T01:26:37.701Z,6.87
2023-05-01T01:28:19.022Z,6.88
2023-05-01T01:30:00.367Z,6.86
2023-05-01T01:31:41.686Z,6.87
2023-05-01T01:33:23.009Z,6.87
2023-05-01T01:35:04.311Z,6.88
2023-05-01T01:36:45.639Z,6.94
2023-05-01T01:38:26.938Z,6.74
2023-05-01T01:40:08.238Z,6.77
2023-05-01T01:41:49.518Z,6.57
2023-05-01T01:43:30.829Z,6.41
2023-05-01T01:45:12.108Z,6.28
2023-05-01T01:46:53.421Z,6.17
2023-05-01T01:48:34.705Z,6.18
2023-05-01T01:50:16.048Z,6.20
2023-05-01T01:51:57.362Z,6.23
2023-05-01T01:53:38.700Z,6.12
2023-05-01T01:55:19.988Z,6.03
2023-05-01T01:57:01.289Z,5.88
2023-05-01T01:58:42.645Z,5.87
2023-05-01T02:00:23.956Z,5.91
2023-05-01T02:02:05.521Z,5.78
2023-05-01T02:03:47.087Z,5.80
2023-05-01T02:05:28.438Z,5.72
2023-05-01T02:07:09.776Z,5.59
2023-05-01T02:08:51.099Z,5.68
2023-05-01T02:10:32.442Z,5.64
2023-05-01T02:12:13.738Z,5.55
2023-05-01T02:13:55.044Z,5.72
2023-05-01T02:15:36.344Z,5.77
2023-05-01T02:17:17.666Z,5.88
2023-05-01T02:18:59.111Z,5.93
2023-05-01T02:20:40.437Z,5.98
2023-05-01T02:22:21.737Z,6.04
2023-05-01T02:24:03.084Z,6.17
2023-05-01T02:25:44.421Z,6.36
2023-05-01T02:27:25.768Z,6.41
2023-05-01T02:29:07.097Z,6.37
2023-05-01T02:30:48.437Z,6.41
2023-05-01T02:32:29.745Z,6.29
2023-05-01T02:34:11.116Z,6.10
2023-05-01T02:35:52.429Z,6.01
2023-05-01T02:37:33.762Z,5.85
2023-05-01T02:39:15.086Z,5.96
2023-05-01T02:42:37.907Z,6.36
2023-05-01T02:44:19.205Z,6.50
2023-05-01T02:46:00.550Z,6.52
2023-05-01T02:47:41.901Z,6.09
2023-05-01T02:49:23.217Z,5.99
2023-05-01T02:51:04.525Z,6.21
2023-05-01T02:52:45.867Z,6.32
2023-05-01T02:54:27.153Z,6.45
2023-05-01T02:56:08.489Z,6.28
2023-05-01T02:57:49.820Z,6.42
2023-05-01T02:59:31.107Z,6.58
2023-05-01T03:01:12.457Z,6.67
2023-05-01T03:02:53.951Z,6.65
2023-05-01T03:04:35.335Z,6.47
2023-05-01T03:06:16.741Z,6.53
2023-05-01T03:07:58.135Z,6.51
2023-05-01T03:09:39.442Z,6.69
2023-05-01T03:11:20.734Z,6.76
2023-05-01T03:13:02.016Z,6.76
2023-05-01T03:14:43.351Z,6.69
2023-05-01T03:16:24.725Z,6.46
2023-05-01T03:18:06.153Z,6.49
2023-05-01T03:19:47.472Z,6.54
2023-05-01T03:21:28.772Z,6.36
2023-05-01T03:23:10.055Z,6.32
2023-05-01T03:24:51.352Z,6.09
2023-05-01T03:26:32.695Z,6.52
2023-05-01T03:28:14.019Z,6.48
2023-05-01T03:29:55.572Z,6.32
2023-05-01T03:31:37.219Z,6.53
2023-05-01T03:33:18.549Z,6.63
2023-05-01T03:34:59.944Z,6.54
2023-05-01T03:36:41.310Z,6.83
2023-05-01T03:38:22.615Z,6.97
2023-05-01T03:40:03.880Z,6.99
2023-05-01T03:41:45.214Z,6.93
2023-05-01T03:43:26.594Z,6.70
2023-05-01T03:45:07.934Z,6.89
2023-05-01T03:46:49.272Z,6.84
2023-05-01T03:48:30.586Z,6.85
2023-05-01T03:50:11.918Z,6.80
2023-05-01T03:51:53.263Z,6.62
2023-05-01T03:53:34.537Z,6.57
2023-05-01T03:55:15.870Z,6.58
2023-05-01T03:56:57.193Z,6.47
2023-05-01T03:58:38.488Z,6.37
2023-05-01T04:00:19.831Z,6.35
2023-05-01T04:02:01.244Z,6.34
2023-05-01T04:03:42.646Z,5.88
2023-05-01T04:05:24.066Z,5.61
2023-05-01T04:07:05.365Z,5.51
2023-05-01T04:08:46.744Z,5.46
2023-05-01T04:10:28.017Z,5.30
2023-05-01T04:12:09.311Z,5.24
2023-05-01T04:13:50.647Z,5.54
2023-05-01T04:15:31.959Z,5.77
2023-05-01T04:17:13.363Z,5.99
2023-05-01T04:18:54.677Z,6.16
2023-05-01T04:20:35.987Z,6.12
2023-05-01T04:22:17.285Z,6.03
2023-05-01T04:23:58.566Z,6.21
2023-05-01T04:25:39.841Z,6.23
2023-05-01T04:27:21.111Z,6.08
2023-05-01T04:29:02.413Z,5.99
2023-05-01T04:30:43.710Z,5.82
2023-05-01T04:32:25.035Z,5.88
2023-05-01T04:34:06.366Z,5.62
2023-05-01T04:35:47.648Z,5.55
2023-05-01T04:37:28.963Z,5.43
2023-05-01T04:39:10.293Z,5.34
2023-05-01T04:40:51.566Z,5.48
2023-05-01T04:42:32.877Z,5.36
2023-05-01T04:44:14.201Z,4.77
2023-05-01T04:45:55.476Z,4.77
2023-05-01T04:47:36.900Z,4.72
2023-05-01T04:49:18.196Z,4.78
2023-05-01T04:50:59.493Z,4.69
2023-05-01T04:52:40.810Z,4.69
2023-05-01T04:54:22.121Z,4.82
2023-05-01T04:56:03.390Z,5.08
2023-05-01T04:57:44.701Z,5.51
2023-05-01T04:59:26.002Z,5.83
2023-05-01T05:01:07.299Z,5.94
2023-05-01T05:02:48.755Z,6.03
2023-05-01T05:04:30.083Z,6.16
2023-05-01T05:06:11.622Z,6.15
2023-05-01T05:07:52.990Z,6.28
2023-05-01T05:09:34.302Z,6.39
2023-05-01T05:11:15.622Z,6.46
2023-05-01T05:12:56.964Z,6.58
2023-05-01T05:14:38.300Z,6.62
2023-05-01T05:16:19.688Z,6.52
2023-05-01T05:18:01.079Z,6.43
2023-05-01T05:19:42.417Z,6.71
2023-05-01T05:21:23.737Z,6.74
2023-05-01T05:23:05.029Z,6.78
2023-05-01T05:24:46.313Z,6.76
2023-05-01T05:26:27.588Z,6.84
2023-05-01T05:28:08.901Z,6.85
2023-05-01T05:29:50.215Z,6.93
2023-05-01T05:31:31.557Z,6.92
2023-05-01T05:33:12.924Z,6.88
2023-05-01T05:34:54.217Z,6.93
2023-05-01T05:36:35.498Z,6.97
2023-05-01T05:38:16.798Z,7.00
2023-05-01T05:39:58.334Z,6.96
2023-05-01T05:41:39.747Z,6.86
2023-05-01T05:43:21.036Z,6.79
2023-05-01T05:45:02.336Z,6.75
2023-05-01T05:46:43.606Z,6.57
2023-05-01T05:48:25.285Z,6.40
2023-05-01T05:50:06.648Z,6.27
2023-05-01T05:51:47.932Z,6.28
2023-05-01T05:53:29.226Z,6.26
2023-05-01T05:55:10.495Z,6.39
2023-05-01T05:56:51.825Z,6.50
2023-05-01T05:58:33.102Z,6.49
2023-05-01T06:00:14.426Z,6.37
2023-05-01T06:01:55.727Z,6.26
2023-05-01T06:03:37.090Z,6.32
2023-05-01T06:05:18.575Z,6.43
2023-05-01T06:06:59.932Z,6.49
2023-05-01T06:08:41.284Z,6.72
2023-05-01T06:10:22.594Z,6.86
2023-05-01T06:12:03.895Z,6.94
2023-05-01T06:13:45.203Z,7.09
2023-05-01T06:15:26.538Z,7.11
2023-05-01T06:17:07.830Z,7.14
2023-05-01T06:18:49.132Z,7.22
2023-05-01T06:20:30.443Z,7.21
2023-05-01T06:22:11.745Z,7.27
2023-05-01T06:23:53.038Z,7.30
2023-05-01T06:25:34.335Z,7.17
2023-05-01T06:27:15.872Z,7.14
2023-05-01T06:28:57.506Z,7.04
2023-05-01T06:30:38.812Z,7.08
2023-05-01T06:32:20.085Z,7.03
2023-05-01T06:34:01.447Z,7.16
2023-05-01T06:35:42.774Z,7.27
2023-05-01T06:37:24.092Z,7.26
2023-05-01T06:39:05.368Z,7.34
2023-05-01T06:40:46.638Z,7.57
2023-05-01T06:42:27.971Z,7.53
2023-05-01T06:44:09.283Z,7.30
2023-05-01T06:45:50.581Z,7.41
2023-05-01T06:47:31.935Z,7.26
2023-05-01T06:49:13.241Z,7.23
2023-05-01T06:50:54.523Z,7.26
2023-05-01T06:52:35.914Z,7.23
2023-05-01T06:54:17.228Z,7.33
2023-05-01T06:55:58.583Z,7.09
2023-05-01T06:57:39.876Z,7.12
2023-05-01T06:59:21.195Z,7.00
2023-05-01T07:01:02.564Z,6.91
2023-05-01T07:02:44.048Z,7.20
2023-05-01T07:04:25.363Z,7.26
2023-05-01T07:06:06.713Z,7.25
2023-05-01T07:07:58.015Z,7.45
2023-05-01T07:09:42.311Z,7.46
2023-05-01T07:11:23.646Z,7.29
2023-05-01T07:13:04.936Z,7.09
2023-05-01T07:14:46.288Z,7.17
2023-05-01T07:16:27.712Z,7.10
2023-05-01T07:18:09.116Z,7.12
2023-05-01T07:19:50.433Z,7.15
2023-05-01T07:21:31.743Z,7.24
2023-05-01T07:23:13.007Z,6.98
2023-05-01T07:24:54.290Z,7.11
2023-05-01T07:26:35.589Z,7.08
2023-05-01T07:28:16.864Z,7.28
2023-05-01T07:29:58.440Z,7.25
2023-05-01T07:31:39.938Z,7.31
2023-05-01T07:33:21.285Z,7.34
2023-05-01T07:35:02.638Z,7.55
2023-05-01T07:36:43.960Z,7.75
2023-05-01T07:38:25.255Z,7.95
2023-05-01T07:40:06.651Z,8.13
2023-05-01T07:41:47.996Z,8.40
2023-05-01T07:43:29.311Z,8.56
2023-05-01T07:45:10.636Z,8.57
2023-05-01T07:46:52.001Z,8.26
2023-05-01T07:48:33.303Z,8.32
2023-05-01T07:50:14.600Z,8.14
2023-05-01T07:51:55.940Z,7.96
2023-05-01T07:53:37.225Z,7.98
2023-05-01T07:55:18.535Z,8.17
2023-05-01T07:56:59.829Z,8.06
2023-05-01T07:58:41.104Z,7.67
2023-05-01T08:00:22.422Z,7.83
2023-05-01T08:02:03.884Z,7.91
2023-05-01T08:03:45.476Z,7.98
2023-05-01T08:05:27.773Z,8.06
2023-05-01T08:07:09.075Z,8.00
2023-05-01T08:08:50.362Z,8.05
2023-05-01T08:10:31.674Z,7.91
2023-05-01T08:12:12.982Z,7.68
2023-05-01T08:13:54.396Z,7.65
2023-05-01T08:15:35.731Z,7.52
2023-05-01T08:17:17.065Z,7.41
2023-05-01T08:18:58.362Z,7.61
2023-05-01T08:20:39.666Z,7.63
2023-05-01T08:22:21.038Z,7.67
2023-05-01T08:24:02.333Z,7.78
2023-05-01T08:25:43.603Z,7.76
2023-05-01T08:27:24.904Z,7.48
2023-05-01T08:29:06.155Z,7.25
2023-05-01T08:30:47.544Z,6.87
2023-05-01T08:32:28.967Z,6.81
2023-05-01T08:34:10.290Z,6.79
2023-05-01T08:35:51.568Z,6.61
2023-05-01T08:37:32.954Z,6.38
2023-05-01T08:39:14.272Z,6.01
2023-05-01T08:40:55.634Z,5.87
2023-05-01T08:42:36.932Z,5.83
2023-05-01T08:44:18.235Z,5.87
2023-05-01T08:45:59.530Z,5.42
2023-05-01T08:47:40.857Z,5.01
2023-05-01T08:49:22.198Z,5.60
2023-05-01T08:51:03.477Z,5.56
2023-05-01T08:52:44.769Z,5.58
2023-05-01T08:54:26.082Z,5.55
2023-05-01T08:56:07.603Z,5.40
2023-05-01T08:57:48.985Z,5.63
2023-05-01T08:59:30.329Z,5.85
2023-05-01T09:01:11.658Z,5.80
2023-05-01T09:02:53.052Z,5.89
2023-05-01T09:04:34.413Z,5.80
2023-05-01T09:06:15.813Z,5.72
2023-05-01T09:07:57.146Z,5.84
2023-05-01T09:09:38.444Z,5.74
2023-05-01T09:11:19.776Z,5.80
2023-05-01T09:13:01.060Z,5.90
2023-05-01T09:14:42.360Z,6.16
2023-05-01T09:16:23.728Z,6.34
2023-05-01T09:18:05.155Z,6.43
2023-05-01T09:19:46.502Z,6.62
2023-05-01T09:21:27.789Z,6.88
2023-05-01T09:23:09.095Z,7.12
2023-05-01T09:24:50.510Z,7.30
2023-05-01T09:26:31.783Z,7.33
2023-05-01T09:28:13.097Z,7.39
2023-05-01T09:29:54.544Z,7.54
2023-05-01T09:31:36.013Z,7.39
2023-05-01T09:33:17.373Z,7.25
2023-05-01T09:34:58.769Z,7.24
2023-05-01T09:36:40.048Z,7.32
2023-05-01T09:38:21.351Z,7.32
2023-05-01T09:40:02.655Z,7.33
2023-05-01T09:41:43.913Z,7.35
2023-05-01T09:43:25.210Z,7.23
2023-05-01T09:45:06.540Z,7.52
2023-05-01T09:46:47.834Z,7.81
2023-05-01T09:48:29.123Z,8.05
2023-05-01T09:50:10.438Z,8.17
2023-05-01T09:51:51.724Z,8.30
2023-05-01T09:53:33.020Z,8.46
2023-05-01T09:55:14.352Z,8.49
2023-05-01T09:56:55.644Z,8.53
2023-05-01T09:58:36.929Z,8.44
2023-05-01T10:00:18.280Z,8.63
2023-05-01T10:01:59.683Z,8.79
2023-05-01T10:03:41.194Z,9.05
2023-05-01T10:05:22.804Z,9.26
2023-05-01T10:07:04.201Z,9.19
2023-05-01T10:08:45.708Z,9.19
2023-05-01T10:10:27.077Z,9.10
2023-05-01T10:12:08.380Z,9.13
2023-05-01T10:13:49.668Z,8.66
2023-05-01T10:15:30.988Z,8.61
2023-05-01T10:17:12.346Z,8.59
2023-05-01T10:18:53.770Z,8.72
2023-05-01T10:20:35.192Z,8.87
2023-05-01T10:22:16.529Z,9.01
2023-05-01T10:23:57.856Z,9.04
2023-05-01T10:25:39.151Z,9.21
2023-05-01T10:27:20.445Z,9.23
2023-05-01T10:29:01.753Z,9.01
2023-05-01T10:30:43.037Z,9.12
2023-05-01T10:32:24.330Z,8.93
2023-05-01T10:34:05.679Z,9.06
2023-05-01T10:35:46.945Z,9.34
2023-05-01T10:37:28.256Z,9.15
2023-05-01T10:39:09.570Z,9.32
2023-05-01T10:40:50.880Z,9.37
2023-05-01T10:42:32.160Z,9.36
2023-05-01T10:44:13.476Z,9.53
2023-05-01T10:45:54.930Z,9.40
2023-05-01T10:47:36.378Z,9.52
2023-05-01T10:49:17.713Z,9.49
2023-05-01T10:50:59.014Z,9.65
2023-05-01T10:52:40.344Z,9.70
2023-05-01T10:54:21.697Z,9.58
2023-05-01T10:56:03.634Z,9.44
2023-05-01T10:57:45.141Z,9.53
2023-05-01T10:59:26.433Z,9.50
2023-05-01T11:01:07.757Z,9.56
2023-05-01T11:02:49.057Z,9.55
2023-05-01T11:04:30.362Z,9.67
2023-05-01T11:06:11.837Z,9.23
2023-05-01T11:07:53.718Z,9.31
2023-05-01T11:09:35.600Z,9.35
2023-05-01T11:11:17.052Z,9.23
2023-05-01T11:12:58.502Z,8.49
2023-05-01T11:14:40.084Z,8.23
2023-05-01T11:16:21.487Z,8.16
2023-05-01T11:18:02.964Z,8.60
2023-05-01T11:19:44.306Z,8.97
2023-05-01T11:21:25.630Z,9.20
2023-05-01T11:23:06.918Z,9.35
2023-05-01T11:24:48.215Z,9.30
2023-05-01T11:26:31.860Z,9.57
2023-05-01T11:28:13.716Z,9.33
2023-05-01T11:29:55.661Z,9.38
2023-05-01T11:31:37.260Z,9.26
2023-05-01T11:33:18.644Z,9.21
2023-05-01T11:35:00.294Z,9.05
2023-05-01T11:36:41.804Z,9.08
2023-05-01T11:38:23.435Z,9.20
2023-05-01T11:40:04.989Z,9.28
2023-05-01T11:41:46.377Z,9.38
2023-05-01T11:43:28.008Z,9.51
2023-05-01T11:45:09.600Z,9.67
2023-05-01T11:46:50.887Z,9.74
2023-05-01T11:48:32.177Z,9.95
2023-05-01T11:50:13.494Z,9.76
2023-05-01T11:51:54.899Z,10.07
2023-05-01T11:53:36.230Z,10.20
2023-05-01T11:55:17.557Z,10.11
2023-05-01T11:56:59.474Z,9.79
2023-05-01T11:58:48.406Z,9.70
2023-05-01T12:00:29.997Z,9.84
2023-05-01T12:02:11.381Z,9.83
2023-05-01T12:03:52.895Z,9.70
2023-05-01T12:05:34.978Z,9.57
2023-05-01T12:07:16.564Z,9.47
2023-05-01T12:08:57.895Z,9.34
2023-05-01T12:10:39.178Z,9.04
2023-05-01T12:12:20.438Z,9.29
2023-05-01T12:14:02.035Z,8.70
2023-05-01T12:15:43.606Z,8.67
2023-05-01T12:17:25.213Z,8.76
2023-05-01T12:19:06.720Z,8.81
2023-05-01T12:20:47.994Z,8.98
2023-05-01T12:22:29.573Z,9.19
2023-05-01T12:24:11.226Z,9.16
2023-05-01T12:25:52.699Z,9.05
2023-05-01T12:27:34.023Z,8.90
2023-05-01T12:29:15.331Z,9.06
2023-05-01T12:30:56.812Z,9.12
2023-05-01T12:32:38.232Z,9.13
2023-05-01T12:34:19.579Z,9.10
2023-05-01T12:36:01.508Z,9.07
2023-05-01T12:37:43.049Z,9.07
2023-05-01T12:39:24.582Z,9.15
2023-05-01T12:41:06.250Z,9.31
2023-05-01T12:42:47.636Z,9.35
2023-05-01T12:44:29.125Z,9.32
2023-05-01T12:46:10.650Z,9.35
2023-05-01T12:47:52.184Z,9.21
2023-05-01T12:49:33.653Z,9.10
2023-05-01T12:51:14.924Z,9.16
2023-05-01T12:52:56.477Z,9.21
2023-05-01T12:54:38.233Z,9.04
2023-05-01T12:56:19.639Z,8.97
2023-05-01T12:58:01.122Z,8.93
2023-05-01T12:59:42.669Z,8.67
2023-05-01T13:01:24.034Z,8.55
2023-05-01T13:03:05.553Z,8.85
2023-05-01T13:04:47.222Z,8.85
2023-05-01T13:06:28.778Z,8.90
2023-05-01T13:08:10.068Z,8.50
2023-05-01T13:09:51.574Z,8.08
2023-05-01T13:11:33.321Z,8.03
2023-05-01T13:13:14.731Z,8.06
2023-05-01T13:14:56.052Z,8.08
2023-05-01T13:16:37.615Z,8.38
2023-05-01T13:18:19.137Z,8.43
2023-05-01T13:20:00.795Z,8.70
2023-05-01T13:21:42.612Z,8.76
2023-05-01T13:23:24.114Z,9.02
2023-05-01T13:25:05.660Z,9.09
2023-05-01T13:26:47.111Z,9.27
2023-05-01T13:28:28.673Z,9.00
2023-05-01T13:30:10.194Z,8.39
2023-05-01T13:31:51.770Z,8.17
2023-05-01T13:33:33.318Z,7.76
2023-05-01T13:35:14.631Z,8.16
2023-05-01T13:36:58.029Z,8.65
2023-05-01T13:38:39.473Z,8.37
2023-05-01T13:40:20.907Z,8.23
2023-05-01T13:42:02.422Z,8.08
2023-05-01T13:43:43.949Z,8.17
2023-05-01T13:45:25.272Z,8.30
2023-05-01T13:47:06.588Z,8.53
2023-05-01T13:48:48.070Z,9.08
2023-05-01T13:50:29.629Z,9.23
2023-05-01T13:52:11.123Z,8.96
2023-05-01T13:53:52.519Z,8.76
2023-05-01T13:55:33.841Z,9.21
2023-05-01T13:57:15.200Z,9.73
2023-05-01T13:58:56.496Z,9.58
2023-05-01T14:00:38.572Z,9.73
2023-05-01T14:02:20.339Z,10.02
2023-05-01T14:04:01.968Z,10.00
2023-05-01T14:05:43.590Z,10.06
2023-05-01T14:07:24.945Z,10.31
2023-05-01T14:09:06.257Z,10.44
2023-05-01T14:10:47.545Z,10.18
2023-05-01T14:12:28.876Z,10.23
2023-05-01T14:14:10.233Z,10.24
2023-05-01T14:15:51.526Z,10.55
2023-05-01T14:17:33.147Z,10.42
2023-05-01T14:19:14.763Z,10.52
2023-05-01T14:20:56.042Z,10.80
2023-05-01T14:22:37.573Z,11.06
2023-05-01T14:24:19.251Z,10.74
2023-05-01T14:26:00.660Z,11.01
2023-05-01T14:27:41.962Z,11.29
2023-05-01T14:29:23.293Z,11.64
2023-05-01T14:31:04.599Z,11.83
2023-05-01T14:32:46.241Z,11.78
2023-05-01T14:34:29.257Z,10.72
2023-05-01T14:36:10.778Z,10.94
2023-05-01T14:37:52.068Z,10.71
2023-05-01T14:39:33.363Z,10.83
2023-05-01T14:41:14.667Z,10.80
2023-05-01T14:42:55.954Z,10.77
2023-05-01T14:44:37.251Z,10.89
2023-05-01T14:46:19.285Z,10.84
2023-05-01T14:48:00.982Z,10.18
2023-05-01T14:49:42.335Z,10.18
2023-05-01T14:51:23.835Z,10.11
2023-05-01T14:53:05.508Z,9.76
2023-05-01T14:54:46.951Z,9.61
2023-05-01T14:56:28.288Z,9.78
2023-05-01T14:58:09.593Z,9.96
2023-05-01T14:59:50.893Z,10.10
2023-05-01T15:01:32.287Z,9.84
2023-05-01T15:03:13.789Z,9.84
2023-05-01T15:04:55.294Z,9.96
2023-05-01T15:06:37.016Z,9.94
2023-05-01T15:08:18.744Z,9.71
2023-05-01T15:10:00.292Z,9.89
2023-05-01T15:11:42.025Z,9.81
2023-05-01T15:13:23.643Z,9.70
2023-05-01T15:15:04.928Z,9.86
2023-05-01T15:16:46.377Z,10.04
2023-05-01T15:18:27.782Z,9.98
2023-05-01T15:20:09.098Z,9.46
2023-05-01T15:21:50.421Z,9.51
2023-05-01T15:23:32.132Z,9.58
2023-05-01T15:25:13.764Z,9.41
2023-05-01T15:26:55.065Z,9.36
2023-05-01T15:28:36.578Z,9.55
2023-05-01T15:30:18.033Z,9.76
2023-05-01T15:32:11.447Z,9.73
2023-05-01T15:33:54.232Z,9.17
2023-05-01T15:35:35.608Z,9.09
2023-05-01T15:37:16.912Z,9.05
2023-05-01T15:38:58.492Z,9.38
2023-05-01T15:40:40.020Z,9.42
2023-05-01T15:42:21.530Z,9.48
2023-05-01T15:44:03.008Z,9.34
2023-05-01T15:45:44.541Z,9.29
2023-05-01T15:47:25.997Z,9.45
2023-05-01T15:49:07.695Z,9.76
2023-05-01T15:50:49.425Z,9.43
2023-05-01T15:52:30.745Z,9.35
2023-05-01T15:54:12.024Z,9.19
2023-05-01T15:55:53.648Z,9.03
2023-05-01T15:57:35.263Z,9.27
2023-05-01T15:59:16.713Z,9.07
2023-05-01T16:00:58.064Z,9.19
2023-05-01T16:02:39.442Z,9.25
2023-05-01T16:04:21.511Z,9.22
2023-05-01T16:06:03.145Z,9.28
2023-05-01T16:07:44.538Z,9.31
2023-05-01T16:09:25.882Z,9.24
2023-05-01T16:11:08.720Z,9.16
2023-05-01T16:12:50.666Z,9.23
2023-05-01T16:14:31.999Z,8.98
2023-05-01T16:16:13.577Z,8.77
2023-05-01T16:17:55.346Z,8.82
2023-05-01T16:19:36.787Z,8.63
2023-05-01T16:21:19.844Z,8.80
2023-05-01T16:23:01.731Z,8.88
2023-05-01T16:24:43.036Z,8.68
2023-05-01T16:26:26.128Z,8.15
2023-05-01T16:28:08.763Z,8.11
2023-05-01T16:29:50.807Z,8.21
2023-05-01T16:31:32.323Z,8.14
2023-05-01T16:33:14.762Z,8.25
2023-05-01T16:34:57.864Z,8.22
2023-05-01T16:36:39.494Z,8.16
2023-05-01T16:38:20.785Z,8.41
2023-05-01T16:40:02.428Z,8.52
2023-05-01T16:41:44.013Z,8.52
2023-05-01T16:43:25.300Z,8.57
2023-05-01T16:45:08.507Z,8.36
2023-05-01T16:46:50.096Z,8.32
2023-05-01T16:48:31.686Z,8.21
2023-05-01T16:50:13.006Z,8.25
2023-05-01T16:51:54.647Z,8.28
2023-05-01T16:53:36.189Z,8.36
2023-05-01T16:55:17.781Z,8.49
2023-05-01T16:56:59.326Z,8.48
2023-05-01T16:58:40.897Z,8.44
2023-05-01T17:00:22.499Z,8.35
2023-05-01T17:02:03.809Z,8.28
2023-05-01T17:03:45.328Z,8.13
2023-05-01T17:05:26.884Z,8.00
2023-05-01T17:07:08.204Z,8.04
2023-05-01T17:08:49.521Z,8.03
2023-05-01T17:10:30.844Z,7.88
2023-05-01T17:12:12.182Z,7.94
2023-05-01T17:13:54.176Z,7.57
2023-05-01T17:15:35.653Z,7.37
2023-05-01T17:17:17.094Z,7.60
2023-05-01T17:18:58.407Z,7.47
2023-05-01T17:20:39.698Z,7.40
2023-05-01T17:22:21.373Z,7.63
2023-05-01T17:24:03.049Z,7.42
2023-05-01T17:25:44.451Z,7.67
2023-05-01T17:27:25.799Z,7.90
2023-05-01T17:29:07.132Z,7.85
2023-05-01T17:30:49.060Z,7.72
2023-05-01T17:32:37.074Z,7.82
2023-05-01T17:34:18.994Z,7.46
2023-05-01T17:36:00.339Z,7.31
2023-05-01T17:37:41.685Z,7.33
2023-05-01T17:39:23.000Z,7.08
2023-05-01T17:41:04.309Z,7.08
2023-05-01T17:42:45.775Z,7.06
2023-05-01T17:44:27.168Z,6.97
2023-05-01T17:46:08.512Z,7.41
2023-05-01T17:47:49.870Z,7.64
2023-05-01T17:49:31.237Z,7.77
2023-05-01T17:51:12.528Z,7.58
2023-05-01T17:52:53.837Z,7.44
2023-05-01T17:54:35.117Z,7.27
2023-05-01T17:56:16.492Z,7.02
2023-05-01T17:57:57.774Z,6.47
2023-05-01T17:59:39.790Z,6.23
2023-05-01T18:01:21.422Z,6.12
2023-05-01T18:03:02.948Z,6.20
2023-05-01T18:04:44.611Z,6.25
2023-05-01T18:06:26.355Z,6.50
2023-05-01T18:08:07.808Z,6.74
2023-05-01T18:09:49.374Z,7.04
2023-05-01T18:11:30.670Z,7.26
2023-05-01T18:13:11.969Z,7.31
2023-05-01T18:14:53.273Z,7.31
2023-05-01T18:16:34.568Z,7.30
2023-05-01T18:18:15.967Z,6.91
2023-05-01T18:19:57.613Z,6.61
2023-05-01T18:21:39.808Z,6.52
2023-05-01T18:23:21.537Z,6.65
2023-05-01T18:25:04.975Z,6.67
2023-05-01T18:26:46.268Z,6.78
2023-05-01T18:28:27.887Z,6.75
2023-05-01T18:30:09.384Z,6.79
2023-05-01T18:31:51.004Z,6.64
2023-05-01T18:33:32.632Z,6.47
2023-05-01T18:35:14.064Z,6.57
2023-05-01T18:36:55.319Z,6.73
2023-05-01T18:38:36.836Z,6.76
2023-05-01T18:40:18.519Z,6.80
2023-05-01T18:41:59.924Z,6.87
2023-05-01T18:43:41.210Z,6.92
2023-05-01T18:45:22.513Z,6.97
2023-05-01T18:47:03.801Z,6.99
2023-05-01T18:48:45.092Z,6.96
2023-05-01T18:50:27.116Z,7.07
2023-05-01T18:52:08.703Z,6.72
2023-05-01T18:53:50.028Z,6.51
2023-05-01T18:55:31.570Z,6.60
2023-05-01T18:57:13.074Z,6.80
2023-05-01T18:58:54.626Z,6.92
2023-05-01T19:00:36.060Z,7.02
2023-05-01T19:02:17.375Z,7.04
2023-05-01T19:03:58.734Z,7.03
2023-05-01T19:05:40.110Z,6.80
2023-05-01T19:07:21.782Z,6.97
2023-05-01T19:09:03.305Z,6.88
2023-05-01T19:10:44.585Z,7.02
2023-05-01T19:12:26.107Z,7.02
2023-05-01T19:14:07.863Z,6.80
2023-05-01T19:15:49.473Z,6.86
2023-05-01T19:17:30.873Z,6.82
2023-05-01T19:19:12.311Z,6.75
2023-05-01T19:20:53.618Z,6.80
2023-05-01T19:22:35.141Z,6.84
2023-05-01T19:24:16.666Z,6.95
2023-05-01T19:25:58.018Z,6.92
2023-05-01T19:27:39.333Z,6.88
2023-05-01T19:29:21.340Z,6.91
2023-05-01T19:31:02.914Z,6.94
2023-05-01T19:32:44.354Z,6.96
2023-05-01T19:34:25.916Z,6.91
2023-05-01T19:36:07.245Z,7.01
2023-05-01T19:37:50.630Z,6.84
2023-05-01T19:39:32.059Z,6.74
2023-05-01T19:41:13.348Z,6.98
2023-05-01T19:42:54.711Z,6.79
2023-05-01T19:44:36.356Z,6.76
2023-05-01T19:46:18.282Z,6.80
2023-05-01T19:47:59.911Z,6.82
2023-05-01T19:49:41.346Z,6.89
2023-05-01T19:51:23.171Z,6.80
2023-05-01T19:53:04.638Z,6.82
2023-05-01T19:54:45.960Z,6.84
2023-05-01T19:56:27.459Z,6.59
2023-05-01T19:58:08.888Z,6.62
2023-05-01T19:59:50.189Z,6.62
2023-05-01T20:01:31.818Z,6.61
2023-05-01T20:03:13.694Z,6.66
2023-05-01T20:04:55.155Z,6.73
2023-05-01T20:06:36.492Z,6.70
2023-05-01T20:08:18.081Z,6.66
2023-05-01T20:09:59.906Z,6.68
2023-05-01T20:11:41.489Z,6.75
2023-05-01T20:13:22.848Z,6.59
2023-05-01T20:15:04.172Z,6.69
2023-05-01T20:16:45.739Z,6.69
2023-05-01T20:18:27.167Z,6.69
2023-05-01T20:20:08.615Z,6.60
2023-05-01T20:21:49.970Z,6.59
2023-05-01T20:23:31.282Z,6.42
2023-05-01T20:25:12.631Z,6.31
2023-05-01T20:26:54.197Z,6.35
2023-05-01T20:28:35.879Z,6.48
2023-05-01T20:30:17.479Z,6.55
2023-05-01T20:31:58.887Z,6.52
2023-05-01T20:33:40.218Z,6.45
2023-05-01T20:35:21.800Z,6.30
2023-05-01T20:37:03.484Z,6.15
2023-05-01T20:38:45.092Z,6.18
2023-05-01T20:40:26.602Z,6.24
2023-05-01T20:42:07.938Z,6.40
2023-05-01T20:43:49.467Z,6.42
2023-05-01T20:45:30.960Z,6.62
2023-05-01T20:47:12.278Z,6.71
2023-05-01T20:48:53.608Z,6.60
2023-05-01T20:50:34.867Z,6.21
2023-05-01T20:52:16.194Z,6.28
2023-05-01T20:53:57.472Z,6.18
2023-05-01T20:55:39.022Z,6.02
2023-05-01T20:57:20.597Z,6.22
2023-05-01T20:59:01.915Z,6.61
2023-05-01T21:00:43.405Z,6.81
2023-05-01T21:02:24.957Z,6.81
2023-05-01T21:04:06.624Z,6.73
2023-05-01T21:05:48.316Z,6.67
2023-05-01T21:07:29.780Z,6.62
2023-05-01T21:09:11.381Z,6.67
2023-05-01T21:10:53.068Z,6.50
2023-05-01T21:12:35.047Z,6.24
2023-05-01T21:14:16.510Z,6.19
2023-05-01T21:15:57.862Z,6.26
2023-05-01T21:17:39.259Z,6.31
2023-05-01T21:19:20.698Z,6.35
2023-05-01T21:21:01.989Z,6.38
2023-05-01T21:22:43.901Z,6.34
2023-05-01T21:24:25.691Z,6.44
2023-05-01T21:26:07.117Z,6.27
2023-05-01T21:27:48.424Z,6.15
2023-05-01T21:29:30.496Z,6.25
2023-05-01T21:31:12.143Z,6.22
2023-05-01T21:32:53.554Z,6.20
2023-05-01T21:34:34.891Z,6.13
2023-05-01T21:36:16.194Z,6.16
2023-05-01T21:37:58.164Z,6.24
2023-05-01T21:39:39.888Z,6.24
2023-05-01T21:41:21.336Z,6.34
2023-05-01T21:43:02.643Z,6.36
2023-05-01T21:44:43.981Z,6.30
2023-05-01T21:46:25.561Z,6.31
2023-05-01T21:48:07.128Z,6.42
2023-05-01T21:49:48.485Z,6.38
2023-05-01T21:51:29.784Z,6.33
2023-05-01T21:53:11.088Z,6.43
2023-05-01T21:54:52.396Z,6.40
2023-05-01T21:56:33.930Z,6.44
2023-05-01T21:58:15.425Z,6.32
2023-05-01T21:59:57.165Z,6.39
2023-05-01T22:01:38.851Z,6.29
2023-05-01T22:03:20.317Z,6.58
2023-05-01T22:05:01.699Z,6.65
2023-05-01T22:06:43.101Z,6.50
2023-05-01T22:08:24.437Z,6.52
2023-05-01T22:10:05.793Z,6.47
2023-05-01T22:11:47.073Z,6.59
2023-05-01T22:13:28.354Z,6.75
2023-05-01T22:15:09.884Z,6.90
2023-05-01T22:16:51.453Z,6.94
2023-05-01T22:18:32.830Z,6.86
2023-05-01T22:20:14.327Z,6.89
2023-05-01T22:21:55.832Z,6.97
2023-05-01T22:23:37.229Z,6.85
2023-05-01T22:25:18.775Z,6.77
2023-05-01T22:27:00.371Z,6.77
2023-05-01T22:28:41.702Z,6.75
2023-05-01T22:30:23.068Z,6.71